Edson, Wisconsin
Current Conditions -  °F | °C
As of 11:56 AM on Monday 24 Nov 2014 (Local Time) from KEAU Reporting Station
Moderate Snow Moderate Snow  
Wind Chill: 17°   Ceiling: 900
Heat Index: 28°   Visibility: 0.5mi
Dew Point: 25°   Wind: 14mph
Humidity: 88%   Direction: 300°WNW
Pressure: 29.31"   Gusts: NA
Location:  44.9343°N, 91.0261°W
Report Text: KEAU 241756Z 30012KT 1/2SM SN FZFG VV009 M02/M04 A2931 RMK AO2 SLP935 P0000 60002 I6000 T10221039 10017 21022 51014
Loading
Personal Weather Stations






























Interactive Weather Map New forecast layout! Learn more

10-Day Weather Forecast

Advertisements
Track Severe Weather on mobile